createdAt,value
2022-12-11T04:33:35.194Z,-0.76
2022-12-11T04:38:37.019Z,-0.76
2022-12-11T04:43:38.719Z,-0.78
2022-12-11T04:48:40.931Z,-0.78
2022-12-11T04:53:42.712Z,-0.77
2022-12-11T04:58:45.159Z,-0.77
2022-12-11T05:03:47.182Z,-0.8
2022-12-11T05:08:49.380Z,-0.8
2022-12-11T05:13:51.212Z,-0.84
2022-12-11T05:18:53.485Z,-0.84
2022-12-11T05:23:55.232Z,-0.84
2022-12-11T05:28:57.160Z,-0.87
2022-12-11T05:33:58.982Z,-0.87
2022-12-11T05:39:01.222Z,-0.85
2022-12-11T05:44:03.298Z,-0.85
2022-12-11T05:49:05.526Z,-0.89
2022-12-11T05:54:08.037Z,-0.89
2022-12-11T05:59:09.888Z,-0.91
2022-12-11T06:04:12.161Z,-0.91
2022-12-11T06:09:15.299Z,-0.94
2022-12-11T06:14:17.146Z,-1.02
2022-12-11T06:19:18.939Z,-1.02
2022-12-11T06:24:20.979Z,-1.05
2022-12-11T06:29:22.774Z,-1.05
2022-12-11T06:34:24.777Z,-1.04
2022-12-11T06:39:26.662Z,-1.04
2022-12-11T06:44:28.506Z,-1.11
2022-12-11T06:49:30.443Z,-1.11
2022-12-11T06:54:32.308Z,-1.1
2022-12-11T06:59:34.202Z,-1.1
2022-12-11T07:04:36.235Z,-1.11
2022-12-11T07:09:39.903Z,-1.11
2022-12-11T07:14:41.815Z,-1.11
2022-12-11T07:19:43.669Z,-1.21
2022-12-11T07:24:45.483Z,-1.21
2022-12-11T07:29:47.298Z,-1.17
2022-12-11T07:34:51.867Z,-1.17
2022-12-11T07:39:54.301Z,-1.1
2022-12-11T07:44:56.153Z,-1.1
2022-12-11T07:49:57.973Z,-1.15
2022-12-11T07:54:59.861Z,-1.15
2022-12-11T08:00:02.210Z,-1.15
2022-12-11T08:05:04.258Z,-1.13
2022-12-11T08:10:06.451Z,-1.13
2022-12-11T08:15:09.161Z,-1.13
2022-12-11T08:20:12.529Z,-1.13
2022-12-11T08:25:14.347Z,-1.17
2022-12-11T08:30:16.444Z,-1.17
2022-12-11T08:35:18.206Z,-1.14
2022-12-11T08:40:19.967Z,-1.14
2022-12-11T08:45:21.986Z,-1.19
2022-12-11T08:50:23.806Z,-1.19
2022-12-11T08:55:25.596Z,-1.16
2022-12-11T09:00:27.469Z,-1.17
2022-12-11T09:05:29.168Z,-1.17
2022-12-11T09:10:30.952Z,-1.15
2022-12-11T09:15:32.696Z,-1.15
2022-12-11T09:20:34.734Z,-1.17
2022-12-11T09:25:38.749Z,-1.17
2022-12-11T09:30:40.627Z,-1.2
2022-12-11T09:35:42.659Z,-1.2
2022-12-11T09:40:44.512Z,-1.23
2022-12-11T09:45:47.337Z,-1.3
2022-12-11T09:50:50.764Z,-1.3
2022-12-11T09:55:55.181Z,-1.22
2022-12-11T10:01:00.947Z,-1.22
2022-12-11T10:06:07.354Z,-1.22
2022-12-11T10:21:26.028Z,-1.2
2022-12-11T10:26:28.608Z,-1.2
2022-12-11T10:31:34.427Z,-1.15
2022-12-11T10:36:38.404Z,-1.15
2022-12-11T10:41:42.037Z,-1.18
2022-12-11T10:46:43.839Z,-1.18
2022-12-11T10:51:45.928Z,-1.13
2022-12-11T10:56:48.354Z,-1.13
2022-12-11T11:01:50.649Z,-1.13
2022-12-11T11:11:58.812Z,-1.14
2022-12-11T11:17:13.067Z,-1.13
2022-12-11T11:22:16.154Z,-1.13
2022-12-11T11:27:23.743Z,-1.13
2022-12-11T11:32:29.635Z,-1.13
2022-12-11T11:37:32.602Z,-1.1
2022-12-11T11:42:40.277Z,-1.1
2022-12-11T11:52:50.826Z,-1.04
2022-12-11T11:57:55.533Z,-1.04
2022-12-11T12:02:59.811Z,-1.03
2022-12-11T12:13:30.411Z,-0.98
2022-12-11T12:18:23.558Z,-0.98
2022-12-11T12:28:39.255Z,-1
2022-12-11T12:38:52.216Z,-0.93
2022-12-11T12:44:04.436Z,-0.93
2022-12-11T12:49:09.934Z,-0.93
2022-12-11T12:54:14.898Z,-0.93
2022-12-11T12:59:19.094Z,-0.86
2022-12-11T13:09:33.510Z,-0.81
2022-12-11T13:14:35.518Z,-0.81
2022-12-11T13:19:42.232Z,-0.72
2022-12-11T13:24:45.077Z,-0.75
2022-12-11T13:29:47.185Z,-0.75
2022-12-11T13:34:51.866Z,-0.75
2022-12-11T13:39:54.017Z,-0.75
2022-12-11T13:44:56.232Z,-0.79
2022-12-11T13:50:01.922Z,-0.79
2022-12-11T14:05:15.935Z,-1
2022-12-11T14:10:19.964Z,-1
2022-12-11T14:15:22.446Z,-1.02
2022-12-11T14:20:26.205Z,-1.15
2022-12-11T14:25:28.955Z,-1.15
2022-12-11T14:30:32.067Z,-1.13
2022-12-11T14:35:38.808Z,-1.13
2022-12-11T14:40:42.630Z,-1.17
2022-12-11T14:45:47.662Z,-1.17
2022-12-11T14:50:51.282Z,-1.16
2022-12-11T14:55:54.711Z,-1.16
2022-12-11T15:00:58.148Z,-1.28
2022-12-11T15:06:01.125Z,-1.36
2022-12-11T15:11:05.931Z,-1.36
2022-12-11T15:16:08.056Z,-1.42
2022-12-11T15:21:11.707Z,-1.42
2022-12-11T15:26:14.061Z,-1.48
2022-12-11T15:31:24.285Z,-1.48
2022-12-11T15:36:30.234Z,-1.54
2022-12-11T15:41:32.672Z,-1.54
2022-12-11T15:46:36.539Z,-1.61
2022-12-11T15:51:42.772Z,-1.61
2022-12-11T15:56:45.540Z,-1.72
2022-12-11T16:01:48.349Z,-1.79
2022-12-11T16:06:51.099Z,-1.79
2022-12-11T16:11:53.992Z,-1.9
2022-12-11T16:16:56.850Z,-1.9
2022-12-11T16:21:59.874Z,-1.97
2022-12-11T16:27:03.497Z,-1.97
2022-12-11T16:32:06.392Z,-2.03
2022-12-11T16:37:09.437Z,-2.03
2022-12-11T16:42:12.896Z,-2.06
2022-12-11T16:47:15.374Z,-2.1
2022-12-11T16:52:22.069Z,-2.1
2022-12-11T16:57:26.102Z,-2.12
2022-12-11T17:02:28.678Z,-2.12
2022-12-11T17:07:31.153Z,-2.23
2022-12-11T17:12:33.388Z,-2.23
2022-12-11T17:17:35.902Z,-2.26
2022-12-11T17:22:38.092Z,-2.26
2022-12-11T17:27:40.601Z,-2.28
2022-12-11T17:32:47.035Z,-2.28
2022-12-11T17:37:51.668Z,-2.29
2022-12-11T17:42:55.438Z,-2.25
2022-12-11T17:47:57.524Z,-2.25
2022-12-11T17:53:00.261Z,-2.34
2022-12-11T17:58:02.889Z,-2.34
2022-12-11T18:03:05.324Z,-2.34
2022-12-11T18:08:09.846Z,-2.34
2022-12-11T18:13:12.829Z,-2.32
2022-12-11T18:18:15.596Z,-2.32
2022-12-11T18:23:18.256Z,-2.37
2022-12-11T18:28:20.720Z,-2.38
2022-12-11T18:33:23.815Z,-2.38
2022-12-11T18:38:26.538Z,-2.43
2022-12-11T18:43:29.839Z,-2.43
2022-12-11T18:48:33.221Z,-2.41
2022-12-11T18:53:38.248Z,-2.41
2022-12-11T18:58:43.587Z,-2.43
2022-12-11T19:03:47.690Z,-2.43
2022-12-11T19:08:50.752Z,-2.5
2022-12-11T19:13:54.594Z,-2.5
2022-12-11T19:18:57.967Z,-2.46
2022-12-11T19:24:02.742Z,-2.5
2022-12-11T19:29:05.729Z,-2.5
2022-12-11T19:34:10.886Z,-2.47
2022-12-11T19:39:15.870Z,-2.47
2022-12-11T19:44:19.157Z,-2.45
2022-12-11T19:49:24.293Z,-2.45
2022-12-11T19:54:28.129Z,-2.47
2022-12-11T19:59:31.425Z,-2.47
2022-12-11T20:04:35.464Z,-2.51
2022-12-11T20:09:38.777Z,-2.54
2022-12-11T20:14:42.543Z,-2.54
2022-12-11T20:19:45.646Z,-2.55
2022-12-11T20:24:50.526Z,-2.55
2022-12-11T20:29:53.627Z,-2.61
2022-12-11T20:34:56.841Z,-2.61
2022-12-11T20:40:01.493Z,-2.65
2022-12-11T20:45:04.973Z,-2.65
2022-12-11T20:50:08.737Z,-2.78
2022-12-11T20:55:12.184Z,-2.78
2022-12-11T21:00:16.796Z,-2.85
2022-12-11T21:05:20.702Z,-2.88
2022-12-11T21:10:23.833Z,-2.88
2022-12-11T21:15:27.640Z,-2.96
2022-12-11T21:20:29.821Z,-2.96
2022-12-11T21:25:32.471Z,-3.04
2022-12-11T21:30:36.690Z,-3.04
2022-12-11T21:35:39.032Z,-3.09
2022-12-11T21:40:41.408Z,-3.09
2022-12-11T21:46:01.275Z,-3.16
2022-12-11T21:50:51.516Z,-3.16
2022-12-11T21:55:53.334Z,-3.16
2022-12-11T22:00:55.701Z,-3.16
2022-12-11T22:05:57.611Z,-3.16
2022-12-11T22:10:59.718Z,-3.16
2022-12-11T22:16:01.547Z,-3.16
2022-12-11T22:21:03.487Z,-3.16
2022-12-11T22:26:05.297Z,-3.16
2022-12-11T22:31:08.986Z,-3.16
2022-12-11T22:36:11.105Z,-3.16
2022-12-11T22:41:17.538Z,-3.16
